METAR & TAF

[Source: ADDS]
METAR
LIPL 280055Z 35003KT 4000 BR NSC 17/16 Q1019 RMK SKC VIS MIN 4000 WIND THR31 35002KT WIND THR13 35002KT GRN =
LIPL 272300Z 2800/2809 29003KT 5000 BR NSC TEMPO 2800/2806 3000 BR BECMG 2806/2809 CAVOK
TAF
LIPL 272300Z 2800/2809 29003KT 5000 BR NSC TEMPO 2800/2806 3000 BR BECMG 2806/2809 CAVOK =

Notice: Undefined index: sun in /web/htdocs/www.154gruppovirtuale.it/home/modules/mod_wx/tmpl/default.php on line 13
Badge

Bottom B

Bottom B 1 Lorem ipsum dolor sit amet, consectetur adipisicing elit, sed do eiusmod tempor incididunt ut labore et dolore.

Badge

Bottom B

Bottom B3 Lorem ipsum dolor sit amet, consectetur adipisicing elit, sed do eiusmod tempor incididunt ut labore et dolore.

Simulation Platform

 
Badge

Bottom B

Bottom B4 Lorem ipsum dolor sit amet, consectetur adipisicing elit, sed do eiusmod tempor incididunt ut labore et dolore.